Time;durP1;ratioP1;P1;durP2;ratioP2;P2;SDS_P1;SDS_P2;PMS_P1;PMS_P2;Temp;Humidity;BMP_temperature;BMP_pressure;BME280_temperature;BME280_humidity;BME280_pressure;Samples;Min_cycle;Max_cycle;Signal;HPM_P1;HPM_P2
2022/12/29 00:02:12;;;;;;;;;0.67;0.00;;;;;;;;5055427;28;45238;-77
2022/12/29 00:04:37;;;;;;;;;1.33;0.00;;;;;;;;5057775;28;45983;-77
2022/12/29 00:07:04;;;;;;;;;0.00;0.00;;;;;;;;5054687;28;45371;-78
2022/12/29 00:09:30;;;;;;;;;0.67;0.00;;;;;;;;5031787;28;45361;-78
2022/12/29 00:11:55;;;;;;;;;0.00;0.00;;;;;;;;5056583;28;45479;-78
2022/12/29 00:17:04;;;;;;;;;0.33;0.33;;;;;;;;5055451;28;45220;-77
2022/12/29 00:36:04;;;;;;;;;4.00;3.00;;;;;;;;5061558;28;45252;-76
2022/12/29 00:44:04;;;;;;;;;4.00;1.00;;;;;;;;5050713;28;45392;-75
2022/12/29 00:46:30;;;;;;;;;0.67;0.67;;;;;;;;5058308;28;45522;-76
2022/12/29 00:51:39;;;;;;;;;0.33;0.33;;;;;;;;5058012;28;45447;-75
2022/12/29 00:54:04;;;;;;;;;1.00;0.00;;;;;;;;5049138;28;45436;-75
2022/12/29 00:56:29;;;;;;;;;0.67;0.67;;;;;;;;5060415;28;45475;-75
2022/12/29 00:58:55;;;;;;;;;2.33;0.67;;;;;;;;5052430;28;45313;-76
2022/12/29 01:01:20;;;;;;;;;0.00;0.00;;;;;;;;5057471;28;45222;-76
2022/12/29 01:03:45;;;;;;;;;0.00;0.00;;;;;;;;5040620;28;45845;-76
2022/12/29 01:06:10;;;;;;;;;0.67;0.67;;;;;;;;5056856;28;45447;-76
2022/12/29 01:08:36;;;;;;;;;0.00;0.00;;;;;;;;5053470;28;45382;-76
2022/12/29 01:11:03;;;;;;;;;0.00;0.00;;;;;;;;5056883;28;45206;-76
2022/12/29 01:13:29;;;;;;;;;0.00;0.00;;;;;;;;5036284;28;46302;-76
2022/12/29 01:15:54;;;;;;;;;3.67;1.00;;;;;;;;5057167;28;45347;-76
2022/12/29 01:18:20;;;;;;;;;0.00;0.00;;;;;;;;5050876;28;45987;-77
2022/12/29 01:20:45;;;;;;;;;0.00;0.00;;;;;;;;5058253;28;45336;-76
2022/12/29 01:23:10;;;;;;;;;1.00;0.00;;;;;;;;5053150;28;45454;-77
2022/12/29 01:25:35;;;;;;;;;0.00;0.00;;;;;;;;5059535;28;45360;-76
2022/12/29 01:28:01;;;;;;;;;0.00;0.00;;;;;;;;5036549;28;45570;-77
2022/12/29 01:30:26;;;;;;;;;0.00;0.00;;;;;;;;5060145;28;45281;-77
2022/12/29 01:32:51;;;;;;;;;0.00;0.00;;;;;;;;5041515;28;45523;-77
2022/12/29 01:35:16;;;;;;;;;0.00;0.00;;;;;;;;5060136;28;45908;-76
2022/12/29 01:37:41;;;;;;;;;0.00;0.00;;;;;;;;5052872;28;46099;-77
2022/12/29 01:40:07;;;;;;;;;0.00;0.00;;;;;;;;5054032;28;45361;-77
2022/12/29 01:42:32;;;;;;;;;1.00;0.00;;;;;;;;5053020;28;45298;-77
2022/12/29 01:44:59;;;;;;;;;0.00;0.00;;;;;;;;5051988;28;45368;-77
2022/12/29 01:47:40;;;;;;;;;0.00;0.00;;;;;;;;5055354;28;45218;-77
2022/12/29 01:50:08;;;;;;;;;0.00;0.00;;;;;;;;5051248;28;45506;-77
2022/12/29 01:52:35;;;;;;;;;0.00;0.00;;;;;;;;5054261;28;45298;-77
2022/12/29 01:55:01;;;;;;;;;0.00;0.00;;;;;;;;5053348;28;45413;-77
2022/12/29 01:57:32;;;;;;;;;0.00;0.00;;;;;;;;5038688;28;45343;-77
2022/12/29 02:00:01;;;;;;;;;0.00;0.00;;;;;;;;5054417;28;45312;-77
2022/12/29 02:02:27;;;;;;;;;4.00;0.00;;;;;;;;5052290;28;45324;-77
2022/12/29 02:04:53;;;;;;;;;0.00;0.00;;;;;;;;5054130;28;45201;-77
2022/12/29 02:07:19;;;;;;;;;0.00;0.00;;;;;;;;5038801;28;45285;-77
2022/12/29 02:09:47;;;;;;;;;0.00;0.00;;;;;;;;5054217;28;45341;-77
2022/12/29 02:12:12;;;;;;;;;0.00;0.00;;;;;;;;5048413;28;44845;-77
2022/12/29 02:14:38;;;;;;;;;0.00;0.00;;;;;;;;5033109;28;46924;-77
2022/12/29 02:17:13;;;;;;;;;1.00;0.00;;;;;;;;5057574;28;45289;-78
2022/12/29 02:20:07;;;;;;;;;0.00;0.00;;;;;;;;5054147;28;45332;-75
2022/12/29 02:22:35;;;;;;;;;0.00;0.00;;;;;;;;5020916;28;45625;-77
2022/12/29 02:25:01;;;;;;;;;0.00;0.00;;;;;;;;5039493;28;47382;-76
2022/12/29 02:27:34;;;;;;;;;1.00;0.00;;;;;;;;5054205;28;45344;-77
2022/12/29 02:30:05;;;;;;;;;1.00;0.00;;;;;;;;5060317;28;45314;-77
2022/12/29 02:32:36;;;;;;;;;0.67;0.00;;;;;;;;5054240;28;45436;-77
2022/12/29 02:35:13;;;;;;;;;0.00;0.00;;;;;;;;5052930;28;45597;-78
2022/12/29 02:37:44;;;;;;;;;0.00;0.00;;;;;;;;5051624;28;45520;-77
2022/12/29 02:40:30;;;;;;;;;0.00;0.00;;;;;;;;5051283;28;45277;-77
2022/12/29 02:43:03;;;;;;;;;1.00;0.00;;;;;;;;5032616;28;45531;-77
2022/12/29 02:45:41;;;;;;;;;0.00;0.00;;;;;;;;5056256;28;45243;-77
2022/12/29 02:48:23;;;;;;;;;0.00;0.00;;;;;;;;5046238;28;45471;-77
2022/12/29 02:51:00;;;;;;;;;0.00;0.00;;;;;;;;5057910;28;45272;-77
2022/12/29 02:56:10;;;;;;;;;0.00;0.00;;;;;;;;5053529;28;45358;-77
2022/12/29 02:58:35;;;;;;;;;1.00;0.00;;;;;;;;5051173;28;45387;-77
2022/12/29 03:01:12;;;;;;;;;1.00;0.00;;;;;;;;5053817;28;45320;-78
2022/12/29 03:03:37;;;;;;;;;0.67;0.00;;;;;;;;5052147;28;45330;-78
2022/12/29 03:06:17;;;;;;;;;0.00;0.00;;;;;;;;5054732;28;44980;-78
2022/12/29 03:08:49;;;;;;;;;0.00;0.00;;;;;;;;5044356;28;45473;-78
2022/12/29 03:17:02;;;;;;;;;1.00;0.00;;;;;;;;5016493;28;45414;-77
2022/12/29 03:19:32;;;;;;;;;0.00;0.00;;;;;;;;5044041;28;45311;-77
2022/12/29 03:24:48;;;;;;;;;0.00;0.00;;;;;;;;5055860;28;45277;-77
2022/12/29 03:27:17;;;;;;;;;1.00;0.00;;;;;;;;5054293;28;45279;-77
2022/12/29 03:29:46;;;;;;;;;1.00;0.00;;;;;;;;5055138;28;45412;-78
2022/12/29 03:32:12;;;;;;;;;1.67;0.00;;;;;;;;5055580;28;45416;-77
2022/12/29 03:34:38;;;;;;;;;0.00;0.00;;;;;;;;5055481;28;45423;-77
2022/12/29 03:37:11;;;;;;;;;0.00;0.00;;;;;;;;5053250;28;45114;-77
2022/12/29 03:39:36;;;;;;;;;1.33;0.00;;;;;;;;5027860;28;45861;-77
2022/12/29 03:42:04;;;;;;;;;1.00;0.00;;;;;;;;5055049;28;45740;-77
2022/12/29 03:44:33;;;;;;;;;0.00;0.00;;;;;;;;5043208;28;45272;-77
2022/12/29 03:46:58;;;;;;;;;0.67;0.00;;;;;;;;5055404;28;45313;-77
2022/12/29 03:49:23;;;;;;;;;1.33;0.00;;;;;;;;5047850;28;45170;-77
2022/12/29 03:51:49;;;;;;;;;0.00;0.00;;;;;;;;5056924;28;45286;-78
2022/12/29 03:54:14;;;;;;;;;0.00;0.00;;;;;;;;5049153;28;45376;-77
2022/12/29 03:56:39;;;;;;;;;0.00;0.00;;;;;;;;5055686;28;45438;-77
2022/12/29 03:59:04;;;;;;;;;0.33;0.00;;;;;;;;5053433;28;45273;-77
2022/12/29 04:01:29;;;;;;;;;0.33;0.00;;;;;;;;5041779;28;45328;-77
2022/12/29 04:03:54;;;;;;;;;0.00;0.00;;;;;;;;5053796;28;45226;-77
2022/12/29 04:06:20;;;;;;;;;0.00;0.00;;;;;;;;5059697;28;45194;-77
2022/12/29 04:08:45;;;;;;;;;0.00;0.00;;;;;;;;5041295;28;45193;-77
2022/12/29 04:11:10;;;;;;;;;0.33;0.00;;;;;;;;5059727;28;45307;-77
2022/12/29 04:13:35;;;;;;;;;3.00;0.00;;;;;;;;5049887;28;45331;-77
2022/12/29 04:16:00;;;;;;;;;0.00;0.00;;;;;;;;5059825;28;45387;-77
2022/12/29 04:18:26;;;;;;;;;1.00;0.00;;;;;;;;5052605;28;45139;-77
2022/12/29 04:21:00;;;;;;;;;0.00;0.00;;;;;;;;5061017;28;45214;-77
2022/12/29 04:23:25;;;;;;;;;1.00;0.00;;;;;;;;5053978;28;45479;-77
2022/12/29 04:25:51;;;;;;;;;0.00;0.00;;;;;;;;5060440;28;45468;-77
2022/12/29 04:28:16;;;;;;;;;0.33;0.33;;;;;;;;5056654;28;45288;-77
2022/12/29 04:30:42;;;;;;;;;0.00;0.00;;;;;;;;5061920;28;45300;-77
2022/12/29 04:33:07;;;;;;;;;1.33;0.00;;;;;;;;5052657;28;45143;-78
2022/12/29 04:35:33;;;;;;;;;2.00;0.33;;;;;;;;5061931;28;45978;-77
2022/12/29 04:37:58;;;;;;;;;0.33;0.00;;;;;;;;5054397;28;45317;-77
2022/12/29 04:40:23;;;;;;;;;0.00;0.00;;;;;;;;5056826;28;45246;-77
2022/12/29 04:42:49;;;;;;;;;1.67;0.67;;;;;;;;5039677;28;45575;-77
2022/12/29 04:45:14;;;;;;;;;0.67;0.00;;;;;;;;5036209;28;46635;-77
2022/12/29 04:47:39;;;;;;;;;3.00;0.33;;;;;;;;5054612;28;45380;-77
2022/12/29 04:50:05;;;;;;;;;0.00;0.00;;;;;;;;5053963;28;45432;-77
2022/12/29 04:52:30;;;;;;;;;2.33;0.00;;;;;;;;5056683;28;45238;-77
2022/12/29 04:54:55;;;;;;;;;0.00;0.00;;;;;;;;5036623;28;45449;-77
2022/12/29 04:57:20;;;;;;;;;0.00;0.00;;;;;;;;5057479;28;45325;-77
2022/12/29 04:59:45;;;;;;;;;0.00;0.00;;;;;;;;5057306;28;45454;-77
2022/12/29 05:02:11;;;;;;;;;0.00;0.00;;;;;;;;5058413;28;45279;-77
2022/12/29 05:04:36;;;;;;;;;0.33;0.00;;;;;;;;5059035;28;45293;-77
2022/12/29 05:07:01;;;;;;;;;0.00;0.00;;;;;;;;5058007;28;45560;-77
2022/12/29 05:09:26;;;;;;;;;1.00;1.00;;;;;;;;5038812;28;45327;-77
2022/12/29 05:11:52;;;;;;;;;0.33;0.00;;;;;;;;5058597;28;45270;-78
2022/12/29 05:14:17;;;;;;;;;1.00;1.00;;;;;;;;5041094;28;45567;-77
2022/12/29 05:16:42;;;;;;;;;0.00;0.00;;;;;;;;5060086;28;45287;-77
2022/12/29 05:19:07;;;;;;;;;2.33;1.00;;;;;;;;5054685;28;45268;-77
2022/12/29 05:21:32;;;;;;;;;1.00;0.00;;;;;;;;5060570;28;45496;-77
2022/12/29 05:23:58;;;;;;;;;1.00;0.00;;;;;;;;5032472;28;47218;-77
2022/12/29 05:26:23;;;;;;;;;0.00;0.00;;;;;;;;5061370;28;45325;-77
2022/12/29 05:28:48;;;;;;;;;3.00;0.00;;;;;;;;5040890;28;45298;-77
2022/12/29 05:31:13;;;;;;;;;0.33;0.00;;;;;;;;5061244;28;45468;-78
2022/12/29 05:33:38;;;;;;;;;1.67;0.00;;;;;;;;5046540;28;46175;-79
2022/12/29 05:36:04;;;;;;;;;0.00;0.00;;;;;;;;5061521;28;44635;-77
2022/12/29 05:38:30;;;;;;;;;1.67;0.00;;;;;;;;5047056;28;45337;-77
2022/12/29 05:40:55;;;;;;;;;0.00;0.00;;;;;;;;5059330;28;45483;-77
2022/12/29 05:43:20;;;;;;;;;1.33;0.00;;;;;;;;5034985;28;48022;-77
2022/12/29 05:45:48;;;;;;;;;0.00;0.00;;;;;;;;5042999;28;45320;-77
2022/12/29 05:48:13;;;;;;;;;0.67;0.67;;;;;;;;5052525;28;45323;-77
2022/12/29 05:50:38;;;;;;;;;2.00;0.67;;;;;;;;5051505;28;44726;-78
2022/12/29 05:53:03;;;;;;;;;0.00;0.00;;;;;;;;5051740;28;45409;-78
2022/12/29 05:55:28;;;;;;;;;4.00;0.00;;;;;;;;5057847;28;45442;-77
2022/12/29 05:57:54;;;;;;;;;2.67;1.00;;;;;;;;5054251;28;45502;-78
2022/12/29 06:00:19;;;;;;;;;2.00;1.00;;;;;;;;5040660;28;45753;-78
2022/12/29 06:02:44;;;;;;;;;1.33;0.33;;;;;;;;5041457;28;46737;-77
2022/12/29 06:05:09;;;;;;;;;0.00;0.00;;;;;;;;5055960;28;44761;-78
2022/12/29 06:07:35;;;;;;;;;1.33;0.00;;;;;;;;5055212;28;45511;-78
2022/12/29 06:10:00;;;;;;;;;2.33;2.00;;;;;;;;5056206;28;45479;-77
2022/12/29 06:12:25;;;;;;;;;0.67;0.67;;;;;;;;5055752;28;46136;-77
2022/12/29 06:14:50;;;;;;;;;2.67;1.00;;;;;;;;5033583;28;45327;-77
2022/12/29 06:17:15;;;;;;;;;0.00;0.00;;;;;;;;5040387;28;45380;-77
2022/12/29 06:19:41;;;;;;;;;1.67;0.33;;;;;;;;5052839;28;45439;-76
2022/12/29 06:22:07;;;;;;;;;2.00;0.33;;;;;;;;5039376;28;48181;-76
2022/12/29 06:24:32;;;;;;;;;0.67;0.67;;;;;;;;5059680;28;45455;-76
2022/12/29 06:26:57;;;;;;;;;1.33;1.00;;;;;;;;5039694;28;45446;-77
2022/12/29 06:29:22;;;;;;;;;1.00;1.00;;;;;;;;5044746;28;45725;-77
2022/12/29 06:31:49;;;;;;;;;2.00;1.00;;;;;;;;5058828;28;45445;-77
2022/12/29 06:34:14;;;;;;;;;2.00;0.00;;;;;;;;5049027;28;45309;-77
2022/12/29 06:36:39;;;;;;;;;1.33;0.00;;;;;;;;5040719;28;45238;-76
2022/12/29 06:39:05;;;;;;;;;2.00;0.67;;;;;;;;5048991;28;45382;-77
2022/12/29 06:41:30;;;;;;;;;2.67;1.00;;;;;;;;5052663;28;45376;-76
2022/12/29 06:43:55;;;;;;;;;3.33;0.00;;;;;;;;5045873;28;45193;-77
2022/12/29 06:46:20;;;;;;;;;0.67;0.67;;;;;;;;5052447;28;45193;-76
2022/12/29 06:48:46;;;;;;;;;2.67;0.00;;;;;;;;5042225;28;46062;-76
2022/12/29 06:51:11;;;;;;;;;1.33;1.00;;;;;;;;5060002;28;46257;-76
2022/12/29 06:53:36;;;;;;;;;1.00;1.00;;;;;;;;5052415;28;45186;-76
2022/12/29 06:56:01;;;;;;;;;2.67;0.00;;;;;;;;5051132;28;45419;-76
2022/12/29 06:58:26;;;;;;;;;2.67;1.00;;;;;;;;5053131;28;45515;-76
2022/12/29 07:00:51;;;;;;;;;2.33;0.67;;;;;;;;5057462;28;45233;-76
2022/12/29 07:03:17;;;;;;;;;2.33;0.67;;;;;;;;5055539;28;45358;-76
2022/12/29 07:05:42;;;;;;;;;3.67;1.00;;;;;;;;5058633;28;45644;-76
2022/12/29 07:08:07;;;;;;;;;0.67;0.67;;;;;;;;5040626;28;45783;-75
2022/12/29 07:10:32;;;;;;;;;2.33;0.00;;;;;;;;5059294;28;45208;-76
2022/12/29 07:12:58;;;;;;;;;0.00;0.00;;;;;;;;5050647;28;45285;-76
2022/12/29 07:15:23;;;;;;;;;2.00;0.00;;;;;;;;5050874;28;45377;-76
2022/12/29 07:17:49;;;;;;;;;1.00;1.00;;;;;;;;5052018;28;45301;-76
2022/12/29 07:20:14;;;;;;;;;4.00;1.00;;;;;;;;5055410;28;45442;-75
2022/12/29 07:22:40;;;;;;;;;2.00;0.00;;;;;;;;5054441;28;44827;-75
2022/12/29 07:25:05;;;;;;;;;0.00;0.00;;;;;;;;5053177;28;45699;-75
2022/12/29 07:27:30;;;;;;;;;3.33;1.00;;;;;;;;5036694;28;45627;-75
2022/12/29 07:29:55;;;;;;;;;2.33;0.00;;;;;;;;5053563;28;45925;-75
2022/12/29 07:32:21;;;;;;;;;0.00;0.00;;;;;;;;5053676;28;45353;-75
2022/12/29 07:34:47;;;;;;;;;0.00;0.00;;;;;;;;5055750;28;45430;-75
2022/12/29 07:37:13;;;;;;;;;0.00;0.00;;;;;;;;5054328;28;47275;-75
2022/12/29 07:39:39;;;;;;;;;2.00;1.00;;;;;;;;5049907;28;45332;-74
2022/12/29 07:42:04;;;;;;;;;3.00;0.33;;;;;;;;5056277;28;45299;-74
2022/12/29 07:44:29;;;;;;;;;0.00;0.00;;;;;;;;5050012;28;45277;-74
2022/12/29 07:46:54;;;;;;;;;1.00;0.00;;;;;;;;5057123;28;45378;-74
2022/12/29 07:49:19;;;;;;;;;0.00;0.00;;;;;;;;5047532;28;46120;-73
2022/12/29 07:51:45;;;;;;;;;0.00;0.00;;;;;;;;5039015;28;45308;-74
2022/12/29 07:54:11;;;;;;;;;0.00;0.00;;;;;;;;5050030;28;45249;-74
2022/12/29 07:56:37;;;;;;;;;1.00;0.00;;;;;;;;5054662;28;45297;-74
2022/12/29 07:59:02;;;;;;;;;2.00;0.33;;;;;;;;5050148;28;45570;-74
2022/12/29 08:01:27;;;;;;;;;2.00;0.00;;;;;;;;5036813;28;45264;-74
2022/12/29 08:03:52;;;;;;;;;1.00;0.00;;;;;;;;5038843;28;45306;-74
2022/12/29 08:06:18;;;;;;;;;0.00;0.00;;;;;;;;5059004;28;45367;-74
2022/12/29 08:08:43;;;;;;;;;1.33;0.00;;;;;;;;5052014;28;46079;-73
2022/12/29 08:11:08;;;;;;;;;1.00;0.00;;;;;;;;5055574;28;45213;-74
2022/12/29 08:13:33;;;;;;;;;0.00;0.00;;;;;;;;5050958;28;45257;-73
2022/12/29 08:15:59;;;;;;;;;2.00;0.00;;;;;;;;5056172;28;45408;-73
2022/12/29 08:18:24;;;;;;;;;0.00;0.00;;;;;;;;5048929;28;45435;-73
2022/12/29 08:20:49;;;;;;;;;3.25;0.00;;;;;;;;5038582;28;45291;-73
2022/12/29 08:23:14;;;;;;;;;2.75;1.00;;;;;;;;5053769;28;46278;-74
2022/12/29 08:25:39;;;;;;;;;1.25;0.50;;;;;;;;5040138;28;45852;-73
2022/12/29 08:28:05;;;;;;;;;1.00;1.00;;;;;;;;5049483;28;45613;-73
2022/12/29 08:30:30;;;;;;;;;2.00;1.00;;;;;;;;5027091;28;45416;-73
2022/12/29 08:32:55;;;;;;;;;0.67;0.00;;;;;;;;5045031;28;45547;-73
2022/12/29 08:35:20;;;;;;;;;2.25;1.00;;;;;;;;5057877;28;44681;-73
2022/12/29 08:37:46;;;;;;;;;2.33;1.00;;;;;;;;5052607;28;45455;-73
2022/12/29 08:40:11;;;;;;;;;2.00;1.00;;;;;;;;5056212;28;45431;-73
2022/12/29 08:42:36;;;;;;;;;2.00;0.00;;;;;;;;5039335;28;45451;-73
2022/12/29 08:45:01;;;;;;;;;0.67;0.67;;;;;;;;5040003;28;45732;-73
2022/12/29 08:47:27;;;;;;;;;1.67;1.00;;;;;;;;5053733;28;46712;-73
2022/12/29 08:49:52;;;;;;;;;1.33;0.67;;;;;;;;5040831;28;45355;-73
2022/12/29 08:52:17;;;;;;;;;3.00;1.00;;;;;;;;5038946;28;45354;-73
2022/12/29 08:54:42;;;;;;;;;1.00;0.00;;;;;;;;5055202;28;45538;-73
2022/12/29 08:57:08;;;;;;;;;2.00;2.00;;;;;;;;5058725;28;46279;-74
2022/12/29 08:59:33;;;;;;;;;1.75;0.75;;;;;;;;5057683;28;45440;-73
2022/12/29 09:01:58;;;;;;;;;3.50;2.50;;;;;;;;5059131;28;45344;-74
2022/12/29 09:04:23;;;;;;;;;2.00;0.33;;;;;;;;5039974;28;45500;-74
2022/12/29 09:06:49;;;;;;;;;1.00;1.00;;;;;;;;5059123;28;46713;-74
2022/12/29 09:09:14;;;;;;;;;3.00;1.00;;;;;;;;5055812;28;45680;-74
2022/12/29 09:11:41;;;;;;;;;3.50;2.00;;;;;;;;5060297;28;45365;-74
2022/12/29 09:14:06;;;;;;;;;3.00;1.00;;;;;;;;5054951;28;45273;-74
2022/12/29 09:16:32;;;;;;;;;2.00;2.00;;;;;;;;5060842;28;46115;-74
2022/12/29 09:18:57;;;;;;;;;1.25;1.25;;;;;;;;5055418;28;45411;-74
2022/12/29 09:21:22;;;;;;;;;1.00;1.00;;;;;;;;5059712;28;44927;-74
2022/12/29 09:23:48;;;;;;;;;4.25;1.00;;;;;;;;5055496;28;45347;-74
2022/12/29 09:26:13;;;;;;;;;1.00;1.00;;;;;;;;5042384;28;47648;-74
2022/12/29 09:28:38;;;;;;;;;3.00;0.50;;;;;;;;5054891;28;45233;-74
2022/12/29 09:31:03;;;;;;;;;4.00;0.00;;;;;;;;5058206;28;45240;-74
2022/12/29 09:33:29;;;;;;;;;5.67;1.00;;;;;;;;5041693;28;45961;-76
2022/12/29 09:35:55;;;;;;;;;5.75;1.00;;;;;;;;5058198;28;45205;-74
2022/12/29 09:38:21;;;;;;;;;3.00;0.75;;;;;;;;5050503;28;45372;-74
2022/12/29 09:40:51;;;;;;;;;6.75;2.00;;;;;;;;5059039;28;45368;-74
2022/12/29 09:43:34;;;;;;;;;1.50;1.50;;;;;;;;5048601;28;45463;-74
2022/12/29 09:45:59;;;;;;;;;3.00;1.25;;;;;;;;5051388;28;45372;-74
2022/12/29 09:48:31;;;;;;;;;3.25;1.25;;;;;;;;5050973;28;45317;-74
2022/12/29 09:50:59;;;;;;;;;2.75;1.00;;;;;;;;5052950;28;45309;-74
2022/12/29 09:53:45;;;;;;;;;2.00;2.00;;;;;;;;5039718;28;45366;-74
2022/12/29 09:56:19;;;;;;;;;6.00;3.00;;;;;;;;5054747;28;45551;-75
2022/12/29 09:58:52;;;;;;;;;2.00;1.00;;;;;;;;5053683;28;45451;-74
2022/12/29 10:01:23;;;;;;;;;5.00;1.00;;;;;;;;5058702;28;45454;-74
2022/12/29 10:03:53;;;;;;;;;6.75;4.50;;;;;;;;5046530;28;45558;-74
2022/12/29 10:06:31;;;;;;;;;5.00;2.00;;;;;;;;5042350;28;45786;-74
2022/12/29 10:09:08;;;;;;;;;1.75;0.50;;;;;;;;5047496;28;45429;-74
2022/12/29 10:11:54;;;;;;;;;1.33;1.33;;;;;;;;5042364;28;45319;-74
2022/12/29 10:14:22;;;;;;;;;4.00;1.75;;;;;;;;5045747;28;45336;-74
2022/12/29 10:17:00;;;;;;;;;3.00;1.75;;;;;;;;5058522;28;45296;-74
2022/12/29 10:19:41;;;;;;;;;1.00;0.00;;;;;;;;5055297;28;45240;-74
2022/12/29 10:22:09;;;;;;;;;6.33;1.33;;;;;;;;5051924;28;45379;-74
2022/12/29 10:24:37;;;;;;;;;3.00;3.00;;;;;;;;5049462;28;45368;-74
2022/12/29 10:27:03;;;;;;;;;4.00;2.00;;;;;;;;5057965;28;46209;-75
2022/12/29 10:29:38;;;;;;;;;5.00;2.00;;;;;;;;5050853;28;45590;-74
2022/12/29 10:32:13;;;;;;;;;5.00;2.67;;;;;;;;5058213;28;45348;-73
2022/12/29 10:34:44;;;;;;;;;4.00;2.67;;;;;;;;5050637;28;44683;-74
2022/12/29 10:37:14;;;;;;;;;2.00;1.00;;;;;;;;5056035;28;45336;-74
2022/12/29 10:39:43;;;;;;;;;4.67;3.00;;;;;;;;5051669;28;45325;-74
2022/12/29 10:42:13;;;;;;;;;7.00;3.25;;;;;;;;5056964;28;45415;-74
2022/12/29 10:44:39;;;;;;;;;3.25;2.75;;;;;;;;5036503;28;45245;-75
2022/12/29 10:47:07;;;;;;;;;6.50;4.00;;;;;;;;5057532;28;45916;-74
2022/12/29 10:49:34;;;;;;;;;4.50;3.00;;;;;;;;5048293;28;45326;-75
2022/12/29 10:52:02;;;;;;;;;8.50;1.75;;;;;;;;5056248;28;45410;-74
2022/12/29 10:54:32;;;;;;;;;6.50;4.25;;;;;;;;5050948;28;46258;-75
2022/12/29 10:57:05;;;;;;;;;5.67;2.00;;;;;;;;5056766;28;46618;-74
2022/12/29 10:59:31;;;;;;;;;5.25;4.00;;;;;;;;5054411;28;44790;-75
2022/12/29 11:02:17;;;;;;;;;8.00;4.00;;;;;;;;5057594;28;45440;-75
2022/12/29 11:04:46;;;;;;;;;9.50;3.75;;;;;;;;5022155;28;46025;-75
2022/12/29 11:07:12;;;;;;;;;5.00;3.67;;;;;;;;5056741;28;45394;-75
2022/12/29 11:09:38;;;;;;;;;5.00;1.67;;;;;;;;5030300;28;45279;-75
2022/12/29 11:12:24;;;;;;;;;5.00;2.33;;;;;;;;5057667;28;45234;-75
2022/12/29 11:15:01;;;;;;;;;2.67;2.67;;;;;;;;5048248;28;45519;-73
2022/12/29 11:17:26;;;;;;;;;4.00;4.00;;;;;;;;5056737;28;45534;-73
2022/12/29 11:19:51;;;;;;;;;7.25;4.25;;;;;;;;5054348;28;45400;-75
2022/12/29 11:22:24;;;;;;;;;6.33;4.00;;;;;;;;5057208;28;45358;-75
2022/12/29 11:24:51;;;;;;;;;6.67;2.67;;;;;;;;5039014;28;47434;-75
2022/12/29 11:27:20;;;;;;;;;5.33;2.00;;;;;;;;5054826;28;45435;-76
2022/12/29 11:29:46;;;;;;;;;4.00;2.00;;;;;;;;5045387;28;45330;-74
2022/12/29 11:32:18;;;;;;;;;3.00;0.33;;;;;;;;5055015;28;47234;-75
2022/12/29 11:34:44;;;;;;;;;9.00;4.00;;;;;;;;5034898;28;46303;-75
2022/12/29 11:37:20;;;;;;;;;5.67;4.00;;;;;;;;5054558;28;46277;-75
2022/12/29 11:39:56;;;;;;;;;6.33;4.00;;;;;;;;5026863;28;45789;-75
2022/12/29 11:42:22;;;;;;;;;6.00;5.00;;;;;;;;5042294;28;45362;-75
2022/12/29 11:44:48;;;;;;;;;6.00;2.33;;;;;;;;5044277;28;45436;-75
2022/12/29 11:47:23;;;;;;;;;5.00;4.00;;;;;;;;5054455;28;45043;-75
2022/12/29 11:49:49;;;;;;;;;4.00;3.00;;;;;;;;5049338;28;45498;-73
2022/12/29 11:52:14;;;;;;;;;4.67;2.33;;;;;;;;5055691;28;45301;-74
2022/12/29 11:54:40;;;;;;;;;4.00;4.00;;;;;;;;5031096;28;45775;-75
2022/12/29 11:57:14;;;;;;;;;8.00;4.67;;;;;;;;5056830;28;46220;-73
2022/12/29 11:59:43;;;;;;;;;5.00;3.33;;;;;;;;5030806;28;45496;-75
2022/12/29 12:02:29;;;;;;;;;7.00;2.00;;;;;;;;5055576;28;45323;-76
2022/12/29 12:05:20;;;;;;;;;5.00;3.67;;;;;;;;5016598;28;45327;-76
2022/12/29 12:07:47;;;;;;;;;10.00;4.00;;;;;;;;5019253;28;45499;-75
2022/12/29 12:10:28;;;;;;;;;4.00;3.00;;;;;;;;5054021;28;45335;-76
2022/12/29 12:13:01;;;;;;;;;5.33;4.00;;;;;;;;5037846;28;45457;-76
2022/12/29 12:15:36;;;;;;;;;4.67;3.33;;;;;;;;5030325;28;45405;-76
2022/12/29 12:18:05;;;;;;;;;3.67;3.33;;;;;;;;5045863;28;45404;-75
2022/12/29 12:20:33;;;;;;;;;5.33;2.00;;;;;;;;5052066;28;45482;-75
2022/12/29 12:23:08;;;;;;;;;5.00;2.67;;;;;;;;5045686;28;45170;-75
2022/12/29 12:25:43;;;;;;;;;4.00;1.00;;;;;;;;5056436;28;45357;-74
2022/12/29 12:28:18;;;;;;;;;3.00;1.33;;;;;;;;5052929;28;45427;-74
2022/12/29 12:30:46;;;;;;;;;4.00;3.00;;;;;;;;5055460;28;45351;-74
2022/12/29 12:33:14;;;;;;;;;4.00;1.33;;;;;;;;5053180;28;45273;-74
2022/12/29 12:36:00;;;;;;;;;3.67;2.67;;;;;;;;5050354;28;45438;-74
2022/12/29 12:38:44;;;;;;;;;5.00;2.00;;;;;;;;5050235;28;46450;-73
2022/12/29 12:41:33;;;;;;;;;5.00;2.00;;;;;;;;5061816;28;45274;-73
2022/12/29 12:44:01;;;;;;;;;4.67;1.00;;;;;;;;5051863;28;45459;-73
2022/12/29 12:46:37;;;;;;;;;1.00;1.00;;;;;;;;5055097;28;45203;-73
2022/12/29 12:49:12;;;;;;;;;3.67;2.00;;;;;;;;5049967;28;45277;-73
2022/12/29 12:51:44;;;;;;;;;3.00;1.33;;;;;;;;5058937;28;45238;-72
2022/12/29 12:54:09;;;;;;;;;1.00;1.00;;;;;;;;5039021;28;45476;-73
2022/12/29 12:56:40;;;;;;;;;3.00;2.00;;;;;;;;5061384;28;46304;-72
2022/12/29 12:59:26;;;;;;;;;3.00;1.67;;;;;;;;5033803;28;47995;-73
2022/12/29 13:01:59;;;;;;;;;4.00;1.67;;;;;;;;5050835;28;45595;-73
2022/12/29 13:04:24;;;;;;;;;5.00;3.33;;;;;;;;5044679;28;45230;-73
2022/12/29 13:06:52;;;;;;;;;8.33;5.00;;;;;;;;5041738;28;45863;-73
2022/12/29 13:09:33;;;;;;;;;8.67;7.00;;;;;;;;5048604;28;46182;-73
2022/12/29 13:12:10;;;;;;;;;11.67;6.00;;;;;;;;5040805;28;45475;-73
2022/12/29 13:14:59;;;;;;;;;5.33;2.33;;;;;;;;5058351;28;45522;-73
2022/12/29 13:17:29;;;;;;;;;2.67;2.00;;;;;;;;4994481;28;46090;-72
2022/12/29 13:20:13;;;;;;;;;7.00;3.67;;;;;;;;5050850;28;45271;-73
2022/12/29 13:22:46;;;;;;;;;8.33;6.00;;;;;;;;5055886;28;45453;-72
2022/12/29 13:25:14;;;;;;;;;3.33;1.00;;;;;;;;5030663;28;45275;-74
2022/12/29 13:27:40;;;;;;;;;5.67;2.00;;;;;;;;5049922;28;45684;-73
2022/12/29 13:30:05;;;;;;;;;4.00;3.00;;;;;;;;5047200;28;45999;-71
2022/12/29 13:32:35;;;;;;;;;5.67;1.00;;;;;;;;5051187;28;44870;-72
2022/12/29 13:35:15;;;;;;;;;0.67;0.67;;;;;;;;5042746;28;45342;-72
2022/12/29 13:37:50;;;;;;;;;2.00;1.00;;;;;;;;5041866;28;45741;-72
2022/12/29 13:40:18;;;;;;;;;5.33;1.67;;;;;;;;5055616;28;45089;-72
2022/12/29 13:42:44;;;;;;;;;4.00;2.00;;;;;;;;5056475;28;45332;-73
2022/12/29 13:45:21;;;;;;;;;2.00;0.00;;;;;;;;5055290;28;45508;-71
2022/12/29 13:47:54;;;;;;;;;4.00;1.00;;;;;;;;5041649;28;46729;-72
2022/12/29 13:50:21;;;;;;;;;2.00;1.00;;;;;;;;5056918;28;45377;-72
2022/12/29 13:52:59;;;;;;;;;3.00;1.00;;;;;;;;5056307;28;45514;-72
2022/12/29 13:55:28;;;;;;;;;3.67;3.00;;;;;;;;5056494;28;45277;-72
2022/12/29 13:58:03;;;;;;;;;4.00;2.00;;;;;;;;5055891;28;45533;-72
2022/12/29 14:00:32;;;;;;;;;1.67;0.00;;;;;;;;5056792;28;46588;-72
2022/12/29 14:03:09;;;;;;;;;2.67;2.00;;;;;;;;5054646;28;45314;-72
2022/12/29 14:05:35;;;;;;;;;3.67;1.00;;;;;;;;5037118;28;45409;-73
2022/12/29 14:08:15;;;;;;;;;2.67;1.00;;;;;;;;5038991;28;46092;-73
2022/12/29 14:10:48;;;;;;;;;1.00;1.00;;;;;;;;5058630;28;46348;-73
2022/12/29 14:13:18;;;;;;;;;4.33;2.67;;;;;;;;5045610;28;45408;-73
2022/12/29 14:15:44;;;;;;;;;2.00;2.00;;;;;;;;5055687;28;45289;-73
2022/12/29 14:18:10;;;;;;;;;4.67;1.33;;;;;;;;5056256;28;45229;-73
2022/12/29 14:20:35;;;;;;;;;4.00;2.67;;;;;;;;5040907;28;47244;-73
2022/12/29 14:23:09;;;;;;;;;6.67;3.00;;;;;;;;5050676;28;45222;-73
2022/12/29 14:25:54;;;;;;;;;6.00;2.00;;;;;;;;5029254;28;45344;-73
2022/12/29 14:28:23;;;;;;;;;2.33;2.00;;;;;;;;5033746;28;45535;-73
2022/12/29 14:30:53;;;;;;;;;5.33;4.00;;;;;;;;5045903;28;45455;-73
2022/12/29 14:33:18;;;;;;;;;1.00;1.00;;;;;;;;5050706;28;45175;-73
2022/12/29 14:35:49;;;;;;;;;4.67;2.00;;;;;;;;5058829;28;45363;-73
2022/12/29 14:38:32;;;;;;;;;2.67;1.00;;;;;;;;5032508;28;46850;-72
2022/12/29 14:41:16;;;;;;;;;5.00;2.00;;;;;;;;5047744;28;45436;-72
2022/12/29 14:43:51;;;;;;;;;7.33;1.67;;;;;;;;5030179;28;45390;-71
2022/12/29 14:46:16;;;;;;;;;4.67;2.33;;;;;;;;5058248;28;45418;-72
2022/12/29 14:48:43;;;;;;;;;4.00;2.33;;;;;;;;5054235;28;45475;-72
2022/12/29 14:51:28;;;;;;;;;4.67;2.00;;;;;;;;5058288;28;45379;-72
2022/12/29 14:53:53;;;;;;;;;11.33;4.00;;;;;;;;5051903;28;45495;-72
2022/12/29 14:56:20;;;;;;;;;6.67;3.33;;;;;;;;5058560;28;45946;-72
2022/12/29 14:58:52;;;;;;;;;3.67;2.33;;;;;;;;5057405;28;45230;-72
2022/12/29 15:01:20;;;;;;;;;6.67;3.00;;;;;;;;5036536;28;47224;-71
2022/12/29 15:03:49;;;;;;;;;5.00;2.67;;;;;;;;5026610;28;44774;-71
2022/12/29 15:06:18;;;;;;;;;3.67;3.67;;;;;;;;5041018;28;45265;-72
2022/12/29 15:08:47;;;;;;;;;4.33;2.00;;;;;;;;5046543;28;45261;-72
2022/12/29 15:11:23;;;;;;;;;3.67;3.00;;;;;;;;5056919;28;45181;-72
2022/12/29 15:13:48;;;;;;;;;5.33;4.00;;;;;;;;5049124;28;45475;-72
2022/12/29 15:16:31;;;;;;;;;1.00;1.00;;;;;;;;5058545;28;45286;-71
2022/12/29 15:18:56;;;;;;;;;2.67;2.00;;;;;;;;5045469;28;45368;-72
2022/12/29 15:21:24;;;;;;;;;2.67;2.33;;;;;;;;5058406;28;46485;-71
2022/12/29 15:23:49;;;;;;;;;3.33;3.00;;;;;;;;5050435;28;45209;-72
2022/12/29 15:26:20;;;;;;;;;2.00;1.33;;;;;;;;5032071;28;45310;-72
2022/12/29 15:28:46;;;;;;;;;2.00;1.00;;;;;;;;5049314;28;45166;-72
2022/12/29 15:31:19;;;;;;;;;4.67;2.00;;;;;;;;5033463;28;46939;-71